createdAt,value
2023-04-10T00:00:02.787Z,0
2023-04-10T00:01:02.325Z,0
2023-04-10T00:02:02.851Z,0
2023-04-10T00:03:04.335Z,0
2023-04-10T00:04:02.796Z,0
2023-04-10T00:05:03.226Z,0
2023-04-10T00:06:04.288Z,0
2023-04-10T00:07:03.076Z,0
2023-04-10T00:08:02.605Z,0
2023-04-10T00:09:03.077Z,0
2023-04-10T00:10:02.547Z,0
2023-04-10T00:11:03.005Z,0
2023-04-10T00:12:02.428Z,0
2023-04-10T00:13:02.914Z,0
2023-04-10T00:14:04.045Z,0
2023-04-10T00:15:02.903Z,0
2023-04-10T00:16:02.395Z,0
2023-04-10T00:17:04.527Z,0
2023-04-10T00:18:02.303Z,0
2023-04-10T00:19:02.767Z,0
2023-04-10T00:20:02.340Z,0
2023-04-10T00:21:02.752Z,0
2023-04-10T00:22:02.200Z,0
2023-04-10T00:23:02.670Z,0
2023-04-10T00:24:02.107Z,0
2023-04-10T00:25:02.675Z,0
2023-04-10T00:26:03.103Z,0
2023-04-10T00:27:02.616Z,0
2023-04-10T00:28:03.062Z,0
2023-04-10T00:29:02.506Z,0
2023-04-10T00:30:03.169Z,0
2023-04-10T00:31:02.623Z,0
2023-04-10T00:32:03.086Z,0
2023-04-10T00:33:02.632Z,0
2023-04-10T00:34:04.745Z,0
2023-04-10T00:35:02.514Z,0
2023-04-10T00:36:03.030Z,0
2023-04-10T00:37:02.445Z,0
2023-04-10T00:38:04.591Z,0
2023-04-10T00:39:02.449Z,0
2023-04-10T00:40:02.927Z,0
2023-04-10T00:41:02.360Z,0
2023-04-10T00:42:02.869Z,0
2023-04-10T00:43:02.300Z,0
2023-04-10T00:44:02.758Z,0
2023-04-10T00:45:02.312Z,0
2023-04-10T00:46:02.844Z,0
2023-04-10T00:47:02.220Z,0
2023-04-10T00:48:04.371Z,0
2023-04-10T00:50:02.605Z,0
2023-04-10T00:51:03.083Z,0
2023-04-10T00:52:02.570Z,0
2023-04-10T00:53:03.035Z,0
2023-04-10T00:54:04.130Z,0
2023-04-10T00:55:03.004Z,0
2023-04-10T00:56:02.461Z,0
2023-04-10T00:57:02.936Z,0
2023-04-10T00:58:04.055Z,0
2023-04-10T00:59:05.166Z,0
2023-04-10T01:00:02.292Z,0
2023-04-10T01:01:02.889Z,0
2023-04-10T01:02:02.804Z,0
2023-04-10T01:03:02.836Z,0
2023-04-10T01:04:02.421Z,0
2023-04-10T01:05:02.800Z,0
2023-04-10T01:06:02.212Z,0
2023-04-10T01:07:02.681Z,0
2023-04-10T01:08:02.166Z,0
2023-04-10T01:09:04.296Z,0
2023-04-10T01:10:03.104Z,0
2023-04-10T01:11:02.638Z,0
2023-04-10T01:12:03.089Z,0
2023-04-10T01:13:04.200Z,0
2023-04-10T01:14:03.008Z,0
2023-04-10T01:15:02.552Z,0
2023-04-10T01:16:04.675Z,0
2023-04-10T01:17:02.532Z,0
2023-04-10T01:18:02.958Z,0
2023-04-10T01:19:02.431Z,0
2023-04-10T01:20:02.942Z,0
2023-04-10T01:21:02.400Z,0
2023-04-10T01:22:02.836Z,0
2023-04-10T01:23:02.392Z,0
2023-04-10T01:24:02.758Z,0
2023-04-10T01:25:03.998Z,0
2023-04-10T01:26:02.811Z,0
2023-04-10T01:27:02.193Z,0
2023-04-10T01:28:02.684Z,0
2023-04-10T01:29:02.225Z,0
2023-04-10T01:30:02.671Z,0
2023-04-10T01:31:03.207Z,0
2023-04-10T01:32:02.606Z,0
2023-04-10T01:33:03.143Z,0
2023-04-10T01:34:04.219Z,0
2023-04-10T01:35:03.006Z,0
2023-04-10T01:36:04.219Z,0
2023-04-10T01:37:03.090Z,0
2023-04-10T01:38:02.605Z,0
2023-04-10T01:39:03.070Z,0
2023-04-10T01:40:02.524Z,0
2023-04-10T01:41:03.004Z,0
2023-04-10T01:42:02.440Z,0
2023-04-10T01:43:02.925Z,0
2023-04-10T01:44:04.040Z,0
2023-04-10T01:45:04.519Z,0
2023-04-10T01:46:02.454Z,0
2023-04-10T01:47:02.850Z,0
2023-04-10T01:48:02.329Z,0
2023-04-10T01:49:02.761Z,0
2023-04-10T01:50:02.330Z,0
2023-04-10T01:51:02.756Z,0
2023-04-10T01:52:02.243Z,0
2023-04-10T01:53:02.688Z,0
2023-04-10T01:54:02.127Z,0
2023-04-10T01:55:04.303Z,0
2023-04-10T01:56:03.082Z,0
2023-04-10T01:57:02.607Z,0
2023-04-10T01:58:03.088Z,0
2023-04-10T01:59:02.526Z,0
2023-04-10T02:00:04.739Z,0
2023-04-10T02:01:04.119Z,0
2023-04-10T02:02:04.641Z,0
2023-04-10T02:03:02.535Z,0
2023-04-10T02:04:02.908Z,0
2023-04-10T02:05:02.508Z,0
2023-04-10T02:06:02.864Z,0
2023-04-10T02:07:02.289Z,0
2023-04-10T02:08:02.770Z,0
2023-04-10T02:09:02.219Z,0
2023-04-10T02:10:02.692Z,0
2023-04-10T02:11:03.831Z,0
2023-04-10T02:12:02.612Z,0
2023-04-10T02:13:03.081Z,0
2023-04-10T02:14:04.206Z,0
2023-04-10T02:15:04.681Z,0
2023-04-10T02:16:04.236Z,0
2023-04-10T02:17:04.624Z,0
2023-04-10T02:18:02.493Z,0
2023-04-10T02:19:02.925Z,0
2023-04-10T02:20:02.384Z,0
2023-04-10T02:21:02.837Z,0
2023-04-10T02:22:02.366Z,0
2023-04-10T02:23:02.859Z,0
2023-04-10T02:24:02.311Z,0
2023-04-10T02:25:02.781Z,0
2023-04-10T02:26:03.884Z,0
2023-04-10T02:27:02.774Z,0
2023-04-10T02:28:02.208Z,0
2023-04-10T02:29:02.694Z,0
2023-04-10T02:30:03.829Z,0
2023-04-10T02:31:04.313Z,0
2023-04-10T02:32:03.074Z,0
2023-04-10T02:33:02.687Z,0
2023-04-10T02:34:03.077Z,0
2023-04-10T02:35:02.553Z,0
2023-04-10T02:36:04.725Z,0
2023-04-10T02:37:02.441Z,0
2023-04-10T02:38:02.925Z,0
2023-04-10T02:39:02.447Z,0
2023-04-10T02:40:02.926Z,0
2023-04-10T02:41:04.075Z,0
2023-04-10T02:42:02.905Z,0
2023-04-10T02:43:02.365Z,0
2023-04-10T02:44:02.873Z,0
2023-04-10T02:45:02.391Z,0
2023-04-10T02:46:03.190Z,0
2023-04-10T02:47:02.746Z,0
2023-04-10T02:48:03.127Z,0
2023-04-10T02:49:02.534Z,0
2023-04-10T02:50:03.024Z,0
2023-04-10T02:51:02.453Z,0
2023-04-10T02:52:02.928Z,0
2023-04-10T02:53:02.440Z,0
2023-04-10T02:54:02.917Z,0
2023-04-10T02:55:04.037Z,0
2023-04-10T02:56:02.901Z,0
2023-04-10T02:57:02.281Z,0
2023-04-10T02:58:02.753Z,0
2023-04-10T02:59:02.261Z,0
2023-04-10T03:00:04.430Z,0
2023-04-10T03:01:04.017Z,0
2023-04-10T03:02:04.883Z,0
2023-04-10T03:03:02.498Z,0
2023-04-10T03:04:04.471Z,0
2023-04-10T03:05:03.864Z,0
2023-04-10T03:06:02.693Z,0
2023-04-10T03:07:02.214Z,0
2023-04-10T03:08:02.679Z,0
2023-04-10T03:09:02.308Z,0
2023-04-10T03:10:02.853Z,0
2023-04-10T03:11:02.287Z,0
2023-04-10T03:12:02.791Z,0
2023-04-10T03:13:02.267Z,0
2023-04-10T03:14:02.923Z,0
2023-04-10T03:15:03.020Z,0
2023-04-10T03:16:02.537Z,0
2023-04-10T03:17:03.093Z,0
2023-04-10T03:18:02.979Z,0
2023-04-10T03:19:02.422Z,0
2023-04-10T03:20:02.137Z,0
2023-04-10T03:21:02.598Z,0
2023-04-10T03:22:03.153Z,0
2023-04-10T03:23:04.345Z,0
2023-04-10T03:25:02.621Z,0
2023-04-10T03:26:02.266Z,0
2023-04-10T03:27:02.793Z,0
2023-04-10T03:28:02.286Z,0
2023-04-10T03:29:02.918Z,0
2023-04-10T03:30:02.399Z,0
2023-04-10T03:31:03.155Z,0
2023-04-10T03:32:02.758Z,0
2023-04-10T03:33:03.072Z,0
2023-04-10T03:34:02.747Z,0
2023-04-10T03:35:03.968Z,0
2023-04-10T03:36:04.418Z,0
2023-04-10T03:37:02.353Z,0
2023-04-10T03:38:02.840Z,0
2023-04-10T03:39:02.358Z,0
2023-04-10T03:40:02.839Z,0
2023-04-10T03:41:03.972Z,0
2023-04-10T03:42:02.838Z,0
2023-04-10T03:43:02.350Z,0
2023-04-10T03:44:02.993Z,0
2023-04-10T03:45:02.749Z,0
2023-04-10T03:46:02.230Z,0
2023-04-10T03:47:02.935Z,0
2023-04-10T03:48:04.532Z,0
2023-04-10T03:49:02.365Z,0
2023-04-10T03:50:02.852Z,0
2023-04-10T03:51:03.798Z,0
2023-04-10T03:52:02.937Z,0
2023-04-10T03:53:03.005Z,0
2023-04-10T03:54:04.693Z,0
2023-04-10T03:55:02.446Z,0
2023-04-10T03:56:02.987Z,0
2023-04-10T03:57:04.042Z,0
2023-04-10T03:58:02.857Z,0
2023-04-10T03:59:02.361Z,0
2023-04-10T04:00:02.854Z,0
2023-04-10T04:01:02.284Z,0
2023-04-10T04:02:02.825Z,0
2023-04-10T04:03:02.548Z,0
2023-04-10T04:04:02.927Z,0
2023-04-10T04:05:03.960Z,0
2023-04-10T04:06:02.792Z,0
2023-04-10T04:07:03.840Z,0
2023-04-10T04:08:04.293Z,0
2023-04-10T04:09:03.086Z,0
2023-04-10T04:10:02.532Z,0
2023-04-10T04:11:03.001Z,0
2023-04-10T04:12:04.207Z,0
2023-04-10T04:13:02.995Z,0
2023-04-10T04:14:02.445Z,0
2023-04-10T04:15:02.920Z,0
2023-04-10T04:16:02.457Z,0
2023-04-10T04:17:04.619Z,0
2023-04-10T04:18:04.085Z,0
2023-04-10T04:19:02.899Z,0
2023-04-10T04:20:02.295Z,0
2023-04-10T04:21:02.771Z,0
2023-04-10T04:22:02.276Z,0
2023-04-10T04:23:02.767Z,0
2023-04-10T04:24:02.215Z,0
2023-04-10T04:25:02.670Z,0
2023-04-10T04:26:03.793Z,0
2023-04-10T04:27:04.427Z,0
2023-04-10T04:28:04.753Z,0
2023-04-10T04:29:04.204Z,0
2023-04-10T04:30:03.080Z,0
2023-04-10T04:31:04.199Z,0
2023-04-10T04:32:04.743Z,0
2023-04-10T04:33:02.585Z,0
2023-04-10T04:34:03.009Z,0
2023-04-10T04:35:04.136Z,0
2023-04-10T04:36:02.980Z,0
2023-04-10T04:37:02.435Z,0
2023-04-10T04:38:04.522Z,0
2023-04-10T04:39:02.379Z,0
2023-04-10T04:40:02.840Z,0
2023-04-10T04:41:02.381Z,0
2023-04-10T04:42:02.868Z,0
2023-04-10T04:43:02.282Z,0
2023-04-10T04:44:02.767Z,0
2023-04-10T04:45:03.983Z,0
2023-04-10T04:46:02.821Z,0
2023-04-10T04:47:03.879Z,0
2023-04-10T04:48:02.851Z,0
2023-04-10T04:49:02.326Z,0
2023-04-10T04:50:02.697Z,0
2023-04-10T04:51:02.212Z,0
2023-04-10T04:52:02.690Z,0
2023-04-10T04:53:02.148Z,0
2023-04-10T04:54:04.293Z,0
2023-04-10T04:55:03.083Z,0
2023-04-10T04:56:02.617Z,0
2023-04-10T04:57:02.346Z,0
2023-04-10T04:58:02.774Z,0
2023-04-10T04:59:02.302Z,0
2023-04-10T05:00:03.165Z,0
2023-04-10T05:01:03.155Z,0
2023-04-10T05:02:02.814Z,0
2023-04-10T05:03:04.802Z,0
2023-04-10T05:04:04.335Z,0
2023-04-10T05:05:03.039Z,0
2023-04-10T05:06:02.492Z,0
2023-04-10T05:07:02.919Z,0
2023-04-10T05:08:02.441Z,0
2023-04-10T05:09:02.921Z,0
2023-04-10T05:10:02.365Z,0
2023-04-10T05:11:02.835Z,0
2023-04-10T05:12:04.037Z,0
2023-04-10T05:13:04.518Z,0
2023-04-10T05:14:02.283Z,0
2023-04-10T05:15:04.553Z,0
2023-04-10T05:16:02.307Z,0
2023-04-10T05:17:03.760Z,0
2023-04-10T05:18:02.351Z,0
2023-04-10T05:19:02.696Z,0
2023-04-10T05:20:02.114Z,0
2023-04-10T05:21:02.704Z,0
2023-04-10T05:22:04.765Z,0
2023-04-10T05:23:04.276Z,0
2023-04-10T05:24:03.085Z,0
2023-04-10T05:25:04.204Z,0
2023-04-10T05:26:03.006Z,0
2023-04-10T05:27:02.508Z,0
2023-04-10T05:28:03.007Z,0
2023-04-10T05:29:02.433Z,0
2023-04-10T05:30:02.962Z,0
2023-04-10T05:31:02.504Z,0
2023-04-10T05:32:02.915Z,0
2023-04-10T05:33:02.375Z,0
2023-04-10T05:34:04.520Z,0
2023-04-10T05:35:02.364Z,0
2023-04-10T05:36:02.904Z,0
2023-04-10T05:37:02.368Z,0
2023-04-10T05:38:02.865Z,0
2023-04-10T05:39:02.290Z,0
2023-04-10T05:40:02.762Z,0
2023-04-10T05:41:02.320Z,0
2023-04-10T05:42:02.853Z,0
2023-04-10T05:43:02.282Z,0
2023-04-10T05:44:02.758Z,0
2023-04-10T05:45:02.189Z,0
2023-04-10T05:46:02.803Z,0
2023-04-10T05:47:02.273Z,0
2023-04-10T05:48:02.711Z,0
2023-04-10T05:49:02.220Z,0
2023-04-10T05:50:04.405Z,0
2023-04-10T05:52:02.607Z,0.08
2023-04-10T05:53:03.104Z,0
2023-04-10T05:54:02.608Z,0
2023-04-10T05:55:04.801Z,0
2023-04-10T05:56:02.533Z,0
2023-04-10T05:57:03.012Z,0
2023-04-10T05:58:02.522Z,0
2023-04-10T05:59:02.995Z,0
2023-04-10T06:00:02.519Z,0
2023-04-10T06:01:04.705Z,0
2023-04-10T06:02:02.552Z,0
2023-04-10T06:03:04.770Z,0
2023-04-10T06:04:02.585Z,0
2023-04-10T06:05:02.972Z,0.64
2023-04-10T06:06:02.518Z,0
2023-04-10T06:07:02.316Z,0
2023-04-10T06:08:02.789Z,0
2023-04-10T06:09:02.234Z,0
2023-04-10T06:10:02.690Z,1.36
2023-04-10T06:11:02.209Z,0.72
2023-04-10T06:12:02.704Z,0
2023-04-10T06:13:04.842Z,3.2
2023-04-10T06:14:04.218Z,0
2023-04-10T06:15:03.089Z,0
2023-04-10T06:16:02.582Z,0
2023-04-10T06:17:04.677Z,0
2023-04-10T06:18:02.457Z,0
2023-04-10T06:19:04.605Z,0
2023-04-10T06:20:04.159Z,0
2023-04-10T06:21:02.841Z,7.44
2023-04-10T06:22:02.372Z,46.16
2023-04-10T06:23:02.839Z,0
2023-04-10T06:24:02.291Z,0
2023-04-10T06:25:02.804Z,8.96
2023-04-10T06:26:03.873Z,0.64
2023-04-10T06:27:02.690Z,0.64
2023-04-10T06:28:02.209Z,0.8
2023-04-10T06:29:04.304Z,8.16
2023-04-10T06:30:03.083Z,55.36
2023-04-10T06:31:02.611Z,0
2023-04-10T06:32:04.745Z,0
2023-04-10T06:33:04.248Z,0
2023-04-10T06:34:02.989Z,0
2023-04-10T06:35:02.473Z,0
2023-04-10T06:36:02.931Z,0
2023-04-10T06:37:02.430Z,0
2023-04-10T06:38:02.907Z,0
2023-04-10T06:39:02.386Z,0
2023-04-10T06:40:02.836Z,0
2023-04-10T06:41:02.321Z,0
2023-04-10T06:42:02.756Z,0
2023-04-10T06:43:02.276Z,0
2023-04-10T06:44:03.738Z,0
2023-04-10T06:45:03.869Z,0
2023-04-10T06:46:02.771Z,2.8
2023-04-10T06:47:02.372Z,164.64
2023-04-10T06:48:02.710Z,53.76
2023-04-10T06:49:03.176Z,0
2023-04-10T06:50:02.606Z,73.2
2023-04-10T06:51:03.122Z,9.36
2023-04-10T06:52:04.189Z,0
2023-04-10T06:53:03.012Z,0
2023-04-10T06:54:02.442Z,0
2023-04-10T06:55:04.614Z,0
2023-04-10T06:56:03.616Z,0
2023-04-10T06:57:02.935Z,0
2023-04-10T06:58:04.062Z,0
2023-04-10T06:59:02.829Z,0
2023-04-10T07:00:02.347Z,0
2023-04-10T07:01:04.824Z,0
2023-04-10T07:02:02.295Z,0
2023-04-10T07:03:02.938Z,0
2023-04-10T07:04:02.489Z,0
2023-04-10T07:05:02.303Z,0
2023-04-10T07:06:03.045Z,0
2023-04-10T07:07:02.526Z,0
2023-04-10T07:08:02.425Z,0
2023-04-10T07:09:02.441Z,0
2023-04-10T07:10:02.925Z,0
2023-04-10T07:11:02.475Z,0
2023-04-10T07:12:04.157Z,0
2023-04-10T07:13:03.074Z,0
2023-04-10T07:14:02.353Z,0
2023-04-10T07:15:03.117Z,0
2023-04-10T07:16:02.640Z,0
2023-04-10T07:17:03.090Z,0
2023-04-10T07:18:02.713Z,0
2023-04-10T07:19:03.010Z,0
2023-04-10T07:20:02.548Z,0
2023-04-10T07:21:03.045Z,0
2023-04-10T07:22:04.124Z,0
2023-04-10T07:23:02.939Z,0
2023-04-10T07:24:04.045Z,0
2023-04-10T07:25:02.969Z,0
2023-04-10T07:26:02.285Z,0
2023-04-10T07:27:02.839Z,0
2023-04-10T07:28:03.979Z,0
2023-04-10T07:29:02.773Z,0
2023-04-10T07:30:02.236Z,0
2023-04-10T07:31:02.680Z,0
2023-04-10T07:32:02.348Z,0
2023-04-10T07:33:02.804Z,0
2023-04-10T07:34:03.183Z,0
2023-04-10T07:35:04.281Z,0
2023-04-10T07:36:03.109Z,0
2023-04-10T07:37:02.531Z,0
2023-04-10T07:38:03.077Z,0
2023-04-10T07:39:04.221Z,0
2023-04-10T07:40:02.990Z,0
2023-04-10T07:41:02.439Z,0
2023-04-10T07:42:02.948Z,0
2023-04-10T07:43:02.453Z,0
2023-04-10T07:44:02.934Z,0
2023-04-10T07:45:02.391Z,0
2023-04-10T07:46:02.868Z,0
2023-04-10T07:47:04.043Z,0
2023-04-10T07:48:02.907Z,0
2023-04-10T07:49:02.290Z,0
2023-04-10T07:50:02.810Z,0
2023-04-10T07:51:02.304Z,0
2023-04-10T07:52:02.811Z,0
2023-04-10T07:53:03.880Z,0
2023-04-10T07:54:02.684Z,0
2023-04-10T07:55:03.890Z,0
2023-04-10T07:56:02.703Z,0
2023-04-10T07:58:04.315Z,0
2023-04-10T07:59:04.773Z,0
2023-04-10T08:00:02.642Z,0
2023-04-10T08:01:03.021Z,0
2023-04-10T08:02:02.552Z,0
2023-04-10T08:03:04.918Z,0
2023-04-10T08:04:05.355Z,0
2023-04-10T08:05:02.990Z,0
2023-04-10T08:06:02.568Z,0
2023-04-10T08:07:02.932Z,0
2023-04-10T08:08:02.465Z,0
2023-04-10T08:09:02.923Z,0
2023-04-10T08:10:02.362Z,0
2023-04-10T08:11:02.857Z,0
2023-04-10T08:12:02.387Z,0
2023-04-10T08:13:02.834Z,0
2023-04-10T08:14:02.281Z,0
2023-04-10T08:15:04.449Z,0
2023-04-10T08:16:02.195Z,0
2023-04-10T08:17:02.705Z,0
2023-04-10T08:18:02.329Z,0
2023-04-10T08:19:02.608Z,0
2023-04-10T08:20:02.292Z,0
2023-04-10T08:21:04.372Z,0
2023-04-10T08:22:02.204Z,0
2023-04-10T08:24:02.195Z,0
2023-04-10T08:25:04.286Z,0
2023-04-10T08:26:03.151Z,0
2023-04-10T08:27:02.621Z,57.84
2023-04-10T08:28:03.083Z,19.04
2023-04-10T08:29:02.512Z,9.44
2023-04-10T08:30:04.723Z,12.88
2023-04-10T08:31:02.617Z,0
2023-04-10T08:32:02.916Z,21.52
2023-04-10T08:33:02.475Z,21.68
2023-04-10T08:34:02.919Z,0
2023-04-10T08:35:02.361Z,1.28
2023-04-10T08:36:02.882Z,104.96
2023-04-10T08:37:02.398Z,90.16
2023-04-10T08:38:13.617Z,106.24
2023-04-10T08:39:02.282Z,101.68
2023-04-10T08:40:04.488Z,0
2023-04-10T08:41:02.212Z,0
2023-04-10T08:42:02.676Z,0
2023-04-10T08:43:02.275Z,0
2023-04-10T08:44:02.616Z,0
2023-04-10T08:45:03.083Z,200.08
2023-04-10T08:46:02.648Z,0
2023-04-10T08:47:03.105Z,76
2023-04-10T08:48:02.667Z,69.04
2023-04-10T08:49:03.029Z,84.4
2023-04-10T08:50:02.573Z,78
2023-04-10T08:51:03.012Z,84
2023-04-10T08:52:02.442Z,75.84
2023-04-10T08:53:04.674Z,0
2023-04-10T08:54:02.455Z,0
2023-04-10T08:55:02.937Z,0
2023-04-10T08:56:02.376Z,0
2023-04-10T08:57:02.853Z,0
2023-04-10T08:58:02.448Z,315.28
2023-04-10T08:59:04.539Z,357.28
2023-04-10T09:00:16.048Z,205.04
2023-04-10T09:01:02.772Z,186
2023-04-10T09:02:02.612Z,141.12
2023-04-10T09:03:04.549Z,133.28
2023-04-10T09:04:02.374Z,154.64
2023-04-10T09:05:02.769Z,33.92
2023-04-10T09:06:02.241Z,0
2023-04-10T09:07:02.689Z,65.44
2023-04-10T09:08:02.306Z,88.88
2023-04-10T09:09:04.407Z,88.72
2023-04-10T09:10:02.205Z,106.96
2023-04-10T09:11:02.692Z,104.72
2023-04-10T09:12:02.171Z,34
2023-04-10T09:13:04.283Z,111.2
2023-04-10T09:15:02.616Z,195.2
2023-04-10T09:16:03.117Z,115.36
2023-04-10T09:17:04.307Z,126.32
2023-04-10T09:18:03.151Z,75.12
2023-04-10T09:19:03.405Z,69.6
2023-04-10T09:20:03.079Z,92.64
2023-04-10T09:21:04.189Z,72.64
2023-04-10T09:22:03.003Z,96.96
2023-04-10T09:23:04.228Z,52.48
2023-04-10T09:24:02.168Z,81.68
2023-04-10T09:25:02.676Z,96.88
2023-04-10T09:26:02.389Z,74.08
2023-04-10T09:27:02.886Z,26.64
2023-04-10T09:28:02.314Z,0
2023-04-10T09:29:02.777Z,91.68
2023-04-10T09:30:02.231Z,79.44
2023-04-10T09:31:02.705Z,62.96
2023-04-10T09:32:03.876Z,72.16
2023-04-10T09:33:03.705Z,64.64
2023-04-10T09:34:03.169Z,55.92
2023-04-10T09:35:02.617Z,59.68
2023-04-10T09:36:03.129Z,25.12
2023-04-10T09:37:02.511Z,42.72
2023-04-10T09:38:03.006Z,64
2023-04-10T09:39:04.129Z,84.72
2023-04-10T09:40:02.991Z,51.04
2023-04-10T09:41:02.455Z,22.88
2023-04-10T09:42:02.938Z,0
2023-04-10T09:43:04.027Z,0
2023-04-10T09:44:02.837Z,40.72
2023-04-10T09:45:03.957Z,13.04
2023-04-10T09:46:04.478Z,11.92
2023-04-10T09:47:03.859Z,7.44
2023-04-10T09:48:02.720Z,12.96
2023-04-10T09:49:02.186Z,4.8
2023-04-10T09:50:04.351Z,7.52
2023-04-10T09:52:02.601Z,3.52
2023-04-10T09:53:03.063Z,9.2
2023-04-10T09:54:02.599Z,4.16
2023-04-10T09:55:04.697Z,0
2023-04-10T09:56:02.574Z,0
2023-04-10T09:57:03.043Z,1.36
2023-04-10T09:58:02.477Z,2.4
2023-04-10T09:59:04.614Z,1.52
2023-04-10T10:00:04.055Z,1.04
2023-04-10T10:01:02.832Z,0
2023-04-10T10:02:02.687Z,1.68
2023-04-10T10:03:03.005Z,0
2023-04-10T10:04:02.269Z,0
2023-04-10T10:05:02.777Z,0.48
2023-04-10T10:06:03.867Z,2.88
2023-04-10T10:07:02.658Z,0.88
2023-04-10T10:08:03.857Z,1.36
2023-04-10T10:09:02.603Z,1.2
2023-04-10T10:10:03.066Z,2.32
2023-04-10T10:11:02.595Z,1.2
2023-04-10T10:12:04.740Z,2.88
2023-04-10T10:13:04.186Z,0
2023-04-10T10:14:03.019Z,1.52
2023-04-10T10:15:02.579Z,0.8
2023-04-10T10:16:03.047Z,2.16
2023-04-10T10:17:02.597Z,2.08
2023-04-10T10:18:02.980Z,1.12
2023-04-10T10:19:02.437Z,1.12
2023-04-10T10:20:02.916Z,0.72
2023-04-10T10:21:04.026Z,0
2023-04-10T10:22:04.539Z,0
2023-04-10T10:23:02.269Z,1.12
2023-04-10T10:24:04.446Z,0.16
2023-04-10T10:25:02.204Z,1.68
2023-04-10T10:26:03.952Z,0
2023-04-10T10:27:02.205Z,1.04
2023-04-10T10:28:02.747Z,0.64
2023-04-10T10:29:03.821Z,0.88
2023-04-10T10:30:08.475Z,1.12
2023-04-10T10:31:04.845Z,0.16
2023-04-10T10:32:03.571Z,0
2023-04-10T10:33:03.109Z,0.48
2023-04-10T10:34:02.600Z,1.2
2023-04-10T10:35:03.001Z,1.92
2023-04-10T10:36:02.519Z,1.04
2023-04-10T10:37:03.026Z,1.12
2023-04-10T10:38:02.493Z,1.04
2023-04-10T10:39:04.637Z,1.44
2023-04-10T10:40:02.450Z,0.48
2023-04-10T10:41:04.509Z,0.64
2023-04-10T10:42:02.490Z,1.2
2023-04-10T10:43:02.840Z,1.68
2023-04-10T10:44:03.964Z,0.72
2023-04-10T10:45:02.815Z,0.8
2023-04-10T10:46:02.300Z,0.72
2023-04-10T10:47:02.715Z,0.48
2023-04-10T10:48:02.324Z,0.96
2023-04-10T10:49:02.728Z,0
2023-04-10T10:50:03.127Z,1.2
2023-04-10T10:51:02.667Z,1.36
2023-04-10T10:52:03.087Z,1.28
2023-04-10T10:53:02.530Z,0.64
2023-04-10T10:54:03.024Z,0
2023-04-10T10:55:02.555Z,0
2023-04-10T10:56:03.016Z,0.96
2023-04-10T10:57:02.448Z,1.12
2023-04-10T10:58:02.930Z,2.08
2023-04-10T10:59:02.372Z,0.8
2023-04-10T11:00:02.947Z,0.16
2023-04-10T11:01:02.374Z,0.96
2023-04-10T11:02:03.463Z,1.04
2023-04-10T11:03:03.197Z,2.8
2023-04-10T11:04:03.378Z,2.48
2023-04-10T11:05:04.861Z,2.16
2023-04-10T11:06:02.605Z,2.08
2023-04-10T11:07:02.206Z,1.52
2023-04-10T11:08:02.851Z,0.8
2023-04-10T11:09:02.593Z,1.36
2023-04-10T11:10:03.096Z,0.88
2023-04-10T11:11:02.626Z,2.08
2023-04-10T11:12:02.394Z,1.04
2023-04-10T11:13:02.785Z,1.04
2023-04-10T11:14:02.282Z,2.48
2023-04-10T11:15:02.845Z,2.56
2023-04-10T11:16:02.359Z,0.24
2023-04-10T11:17:03.257Z,1.12
2023-04-10T11:18:02.670Z,0.72
2023-04-10T11:19:12.983Z,0.48
2023-04-10T11:20:02.678Z,0
2023-04-10T11:21:02.123Z,0
2023-04-10T11:22:04.443Z,1.52
2023-04-10T11:23:03.898Z,0.72
2023-04-10T11:24:02.769Z,0
2023-04-10T11:25:02.485Z,0.16
2023-04-10T11:26:02.786Z,2.64
2023-04-10T11:27:02.510Z,1.12
2023-04-10T11:28:03.021Z,1.28
2023-04-10T11:29:02.521Z,2
2023-04-10T11:30:03.000Z,4.8
2023-04-10T11:31:04.269Z,3.44
2023-04-10T11:32:04.777Z,0.96
2023-04-10T11:33:02.649Z,3.36
2023-04-10T11:34:03.056Z,3.36
2023-04-10T11:35:04.843Z,0.24
2023-04-10T11:36:02.132Z,1.76
2023-04-10T11:37:02.919Z,0.72
2023-04-10T11:38:02.372Z,0.56
2023-04-10T11:39:02.471Z,0.64
2023-04-10T11:40:04.842Z,0.96
2023-04-10T11:41:04.603Z,2.16
2023-04-10T11:42:02.396Z,0.96
2023-04-10T11:43:02.802Z,1.04
2023-04-10T11:44:02.202Z,1.6
2023-04-10T11:45:04.356Z,2.16
2023-04-10T11:46:03.862Z,1.12
2023-04-10T11:47:02.600Z,2.16
2023-04-10T11:48:04.821Z,3.76
2023-04-10T11:49:02.591Z,2.24
2023-04-10T11:50:03.071Z,0.48
2023-04-10T11:51:02.513Z,0.4
2023-04-10T11:52:03.027Z,2
2023-04-10T11:53:04.209Z,3.36
2023-04-10T11:54:03.015Z,2.16
2023-04-10T11:55:02.439Z,2.96
2023-04-10T11:56:02.927Z,2
2023-04-10T11:57:04.136Z,0.8
2023-04-10T11:58:02.924Z,27.92
2023-04-10T11:59:02.389Z,1.6
2023-04-10T12:00:02.935Z,421.52
2023-04-10T12:01:02.366Z,26
2023-04-10T12:03:02.470Z,8.72
2023-04-10T12:04:03.011Z,3.52
2023-04-10T12:05:02.335Z,4.64
2023-04-10T12:06:02.753Z,0.56
2023-04-10T12:07:02.231Z,3.2
2023-04-10T12:08:02.688Z,2.96
2023-04-10T12:09:02.212Z,1.28
2023-04-10T12:10:02.668Z,2.4
2023-04-10T12:11:03.166Z,1.68
2023-04-10T12:12:02.648Z,2.16
2023-04-10T12:13:03.069Z,1.6
2023-04-10T12:14:02.531Z,0
2023-04-10T12:15:03.191Z,0.72
2023-04-10T12:16:02.575Z,0.88
2023-04-10T12:17:03.025Z,1.28
2023-04-10T12:18:02.466Z,0.72
2023-04-10T12:19:03.008Z,1.68
2023-04-10T12:20:02.466Z,3.44
2023-04-10T12:21:02.914Z,1.68
2023-04-10T12:22:02.440Z,0
2023-04-10T12:23:02.869Z,0
2023-04-10T12:24:04.042Z,0
2023-04-10T12:25:04.532Z,1.52
2023-04-10T12:26:02.300Z,2.4
2023-04-10T12:27:02.754Z,0.88
2023-04-10T12:28:02.286Z,0.56
2023-04-10T12:29:04.437Z,1.84
2023-04-10T12:30:02.362Z,3.84
2023-04-10T12:31:02.839Z,3.52
2023-04-10T12:32:02.200Z,3.36
2023-04-10T12:33:02.709Z,2
2023-04-10T12:34:02.280Z,3.04
2023-04-10T12:35:02.679Z,4.08
2023-04-10T12:36:02.208Z,3.44
2023-04-10T12:37:02.690Z,3.68
2023-04-10T12:38:03.233Z,1.84
2023-04-10T12:39:02.607Z,2.32
2023-04-10T12:40:03.080Z,1.36
2023-04-10T12:41:02.628Z,1.28
2023-04-10T12:42:03.078Z,1.28
2023-04-10T12:43:02.594Z,1.28
2023-04-10T12:44:03.091Z,1.6
2023-04-10T12:45:02.593Z,1.28
2023-04-10T12:46:03.126Z,1.68
2023-04-10T12:47:02.588Z,3.04
2023-04-10T12:48:04.343Z,0.96
2023-04-10T12:49:02.838Z,0.96
2023-04-10T12:50:02.385Z,1.28
2023-04-10T12:51:02.780Z,2.24
2023-04-10T12:52:02.236Z,0.72
2023-04-10T12:53:02.686Z,2.24
2023-04-10T12:54:02.211Z,4.72
2023-04-10T12:55:02.619Z,1.6
2023-04-10T12:56:03.098Z,4.96
2023-04-10T12:57:02.601Z,1.52
2023-04-10T12:58:03.088Z,0.88
2023-04-10T12:59:02.506Z,2
2023-04-10T13:00:03.048Z,0.8
2023-04-10T13:01:04.212Z,0.8
2023-04-10T13:02:03.049Z,1.2
2023-04-10T13:03:02.809Z,2.56
2023-04-10T13:04:02.997Z,2.08
2023-04-10T13:05:02.439Z,4.96
2023-04-10T13:06:02.921Z,4.88
2023-04-10T13:07:02.470Z,1.12
2023-04-10T13:08:04.527Z,1.68
2023-04-10T13:09:02.330Z,2.56
2023-04-10T13:10:02.745Z,2.56
2023-04-10T13:11:02.291Z,1.52
2023-04-10T13:12:04.450Z,1.12
2023-04-10T13:13:02.195Z,1.36
2023-04-10T13:14:02.700Z,1.36
2023-04-10T13:15:02.241Z,1.6
2023-04-10T13:16:02.714Z,0.8
2023-04-10T13:17:03.185Z,1.04
2023-04-10T13:18:05.745Z,0.8
2023-04-10T13:19:03.108Z,0.56
2023-04-10T13:20:02.607Z,0.72
2023-04-10T13:21:03.069Z,1.04
2023-04-10T13:22:02.548Z,1.04
2023-04-10T13:23:04.716Z,726.16
2023-04-10T13:24:02.463Z,605.36
2023-04-10T13:25:03.000Z,348.32
2023-04-10T13:26:02.431Z,0
2023-04-10T13:27:04.613Z,1.68
2023-04-10T13:28:02.360Z,1.04
2023-04-10T13:29:02.952Z,0
2023-04-10T13:30:02.534Z,2.16
2023-04-10T13:31:03.049Z,0
2023-04-10T13:32:04.286Z,1.36
2023-04-10T13:33:03.107Z,1.04
2023-04-10T13:34:02.533Z,0.8
2023-04-10T13:35:03.045Z,1.44
2023-04-10T13:36:02.676Z,2
2023-04-10T13:37:03.896Z,1.04
2023-04-10T13:38:02.874Z,0.88
2023-04-10T13:39:04.240Z,0.72
2023-04-10T13:40:03.094Z,1.36
2023-04-10T13:41:02.819Z,1.6
2023-04-10T13:42:02.324Z,1.36
2023-04-10T13:43:04.486Z,1.36
2023-04-10T13:44:02.209Z,0.64
2023-04-10T13:45:02.768Z,2.4
2023-04-10T13:46:02.269Z,2.72
2023-04-10T13:47:02.969Z,4.16
2023-04-10T13:48:02.506Z,3.44
2023-04-10T13:49:02.299Z,0.72
2023-04-10T13:50:02.910Z,1.12
2023-04-10T13:51:02.527Z,1.04
2023-04-10T13:52:02.132Z,0.64
2023-04-10T13:53:02.687Z,1.36
2023-04-10T13:54:02.477Z,1.04
2023-04-10T13:55:04.115Z,1.52
2023-04-10T13:56:03.005Z,1.28
2023-04-10T13:57:02.620Z,1.28
2023-04-10T13:58:04.517Z,1.6
2023-04-10T13:59:02.355Z,2.16
2023-04-10T14:00:04.444Z,3.04
2023-04-10T14:01:02.298Z,1.04
2023-04-10T14:02:04.441Z,3.68
2023-04-10T14:03:02.379Z,2.64
2023-04-10T14:04:02.732Z,1.12
2023-04-10T14:05:03.158Z,2.08
2023-04-10T14:06:02.612Z,2.16
2023-04-10T14:07:04.754Z,1.52
2023-04-10T14:08:02.554Z,2.96
2023-04-10T14:09:03.005Z,3.2
2023-04-10T14:10:02.565Z,3.28
2023-04-10T14:11:02.997Z,1.12
2023-04-10T14:12:02.618Z,3.92
2023-04-10T14:13:02.930Z,3.2
2023-04-10T14:14:02.364Z,1.68
2023-04-10T14:15:02.868Z,1.2
2023-04-10T14:16:02.368Z,0.96
2023-04-10T14:17:02.964Z,3.44
2023-04-10T14:18:02.420Z,0.96